createdAt,value
2018-08-23T00:00:44.304Z,44.80
2018-08-23T00:01:47.360Z,44.90
2018-08-23T00:02:51.211Z,45.00
2018-08-23T00:03:56.687Z,44.90
2018-08-23T00:05:01.333Z,44.80
2018-08-23T00:06:05.108Z,44.80
2018-08-23T00:07:08.219Z,44.90
2018-08-23T00:08:11.592Z,44.90
2018-08-23T00:09:14.627Z,44.90
2018-08-23T00:10:17.628Z,44.90
2018-08-23T00:11:27.712Z,44.90
2018-08-23T00:12:43.519Z,44.90
2018-08-23T00:13:46.778Z,44.90
2018-08-23T00:14:50.708Z,45.00
2018-08-23T00:15:53.704Z,45.00
2018-08-23T00:16:56.759Z,44.90
2018-08-23T00:18:00.693Z,44.80
2018-08-23T00:19:05.191Z,44.80
2018-08-23T00:20:09.027Z,44.70
2018-08-23T00:21:17.685Z,44.70
2018-08-23T00:22:26.907Z,44.80
2018-08-23T00:23:30.192Z,44.70
2018-08-23T00:24:33.521Z,44.70
2018-08-23T00:25:37.308Z,44.70
2018-08-23T00:26:47.608Z,44.80
2018-08-23T00:27:51.527Z,44.80
2018-08-23T00:28:55.643Z,44.70
2018-08-23T00:29:59.035Z,44.70
2018-08-23T00:31:02.121Z,44.80
2018-08-23T00:32:08.120Z,44.80
2018-08-23T00:33:11.187Z,44.80
2018-08-23T00:34:14.742Z,44.70
2018-08-23T00:35:19.563Z,44.80
2018-08-23T00:36:22.627Z,44.80
2018-08-23T00:37:25.762Z,44.80
2018-08-23T00:38:28.816Z,44.70
2018-08-23T00:39:31.894Z,44.70
2018-08-23T00:40:40.372Z,44.70
2018-08-23T00:41:49.772Z,44.70
2018-08-23T00:42:58.702Z,44.70
2018-08-23T00:44:01.769Z,44.80
2018-08-23T00:45:13.097Z,44.80
2018-08-23T00:46:20.335Z,44.90
2018-08-23T00:47:28.809Z,44.90
2018-08-23T00:48:31.838Z,44.90
2018-08-23T00:49:34.908Z,44.90
2018-08-23T00:50:54.083Z,44.90
2018-08-23T00:51:57.257Z,44.90
2018-08-23T00:53:00.320Z,44.90
2018-08-23T00:54:04.458Z,44.80
2018-08-23T00:55:25.899Z,44.90
2018-08-23T00:56:29.070Z,44.90
2018-08-23T00:57:32.136Z,45.00
2018-08-23T00:58:35.192Z,44.90
2018-08-23T00:59:38.757Z,44.60
2018-08-23T01:00:48.047Z,44.90
2018-08-23T01:02:05.960Z,44.90
2018-08-23T01:03:09.859Z,45.00
2018-08-23T01:04:14.488Z,45.00
2018-08-23T01:05:22.850Z,45.00
2018-08-23T01:06:42.430Z,45.00
2018-08-23T01:07:46.500Z,45.00
2018-08-23T01:08:50.080Z,45.10
2018-08-23T01:09:53.128Z,45.10
2018-08-23T01:10:58.420Z,45.40
2018-08-23T01:12:02.111Z,45.70
2018-08-23T01:13:05.196Z,45.10
2018-08-23T01:14:09.440Z,45.00
2018-08-23T01:15:13.468Z,45.00
2018-08-23T01:16:17.192Z,45.10
2018-08-23T01:17:21.192Z,44.50
2018-08-23T01:18:24.278Z,45.10
2018-08-23T01:19:32.687Z,45.10
2018-08-23T01:20:35.795Z,45.10
2018-08-23T01:21:45.253Z,45.20
2018-08-23T01:22:59.317Z,45.10
2018-08-23T01:24:03.288Z,45.10
2018-08-23T01:25:06.380Z,45.10
2018-08-23T01:26:09.917Z,45.10
2018-08-23T01:27:19.678Z,45.10
2018-08-23T01:28:24.149Z,45.10
2018-08-23T01:29:29.050Z,45.10
2018-08-23T01:30:32.113Z,45.10
2018-08-23T01:31:35.225Z,45.10
2018-08-23T01:32:39.112Z,45.20
2018-08-23T01:33:42.849Z,45.10
2018-08-23T01:34:45.867Z,45.10
2018-08-23T01:35:49.964Z,45.20
2018-08-23T01:36:53.357Z,45.20
2018-08-23T01:37:57.743Z,45.20
2018-08-23T01:39:05.652Z,45.70
2018-08-23T01:40:11.064Z,45.20
2018-08-23T01:41:14.108Z,45.20
2018-08-23T01:42:18.556Z,45.20
2018-08-23T01:43:23.997Z,45.10
2018-08-23T01:44:31.320Z,45.20
2018-08-23T01:45:35.688Z,45.20
2018-08-23T01:46:44.604Z,45.20
2018-08-23T01:47:58.982Z,45.30
2018-08-23T01:49:05.152Z,46.00
2018-08-23T01:50:08.252Z,45.30
2018-08-23T01:51:12.933Z,45.30
2018-08-23T01:52:15.999Z,45.20
2018-08-23T01:53:19.469Z,45.20
2018-08-23T01:54:22.507Z,45.20
2018-08-23T01:55:26.206Z,44.70
2018-08-23T01:56:29.374Z,45.30
2018-08-23T01:57:35.276Z,45.20
2018-08-23T01:58:38.848Z,45.30
2018-08-23T01:59:41.929Z,45.30
2018-08-23T02:00:45.336Z,45.30
2018-08-23T02:01:49.108Z,45.30
2018-08-23T02:02:52.240Z,45.20
2018-08-23T02:03:56.072Z,45.30
2018-08-23T02:04:59.579Z,45.30
2018-08-23T02:06:02.575Z,45.30
2018-08-23T02:07:05.669Z,45.40
2018-08-23T02:08:09.933Z,45.40
2018-08-23T02:09:13.948Z,45.40
2018-08-23T02:10:17.040Z,45.30
2018-08-23T02:11:20.088Z,45.20
2018-08-23T02:12:24.004Z,45.10
2018-08-23T02:13:28.599Z,45.10
2018-08-23T02:14:36.024Z,45.10
2018-08-23T02:15:44.696Z,45.10
2018-08-23T02:16:51.982Z,45.00
2018-08-23T02:17:56.248Z,45.10
2018-08-23T02:18:59.908Z,45.20
2018-08-23T02:20:03.691Z,45.20
2018-08-23T02:21:09.900Z,45.20
2018-08-23T02:22:13.321Z,45.30
2018-08-23T02:23:16.823Z,45.30
2018-08-23T02:24:24.217Z,45.40
2018-08-23T02:25:27.304Z,45.50
2018-08-23T02:26:32.120Z,45.30
2018-08-23T02:27:40.148Z,45.30
2018-08-23T02:28:44.748Z,45.30
2018-08-23T02:29:48.745Z,45.30
2018-08-23T02:30:56.897Z,45.30
2018-08-23T02:32:00.419Z,46.00
2018-08-23T02:33:03.961Z,45.40
2018-08-23T02:34:07.312Z,45.40
2018-08-23T02:35:10.272Z,45.40
2018-08-23T02:36:17.407Z,45.30
2018-08-23T02:37:20.812Z,45.40
2018-08-23T02:38:24.908Z,45.20
2018-08-23T02:39:28.078Z,45.30
2018-08-23T02:40:31.172Z,45.30
2018-08-23T02:41:34.894Z,45.30
2018-08-23T02:42:38.437Z,45.40
2018-08-23T02:43:41.539Z,45.40
2018-08-23T02:44:46.501Z,45.40
2018-08-23T02:45:52.468Z,45.20
2018-08-23T02:46:56.588Z,45.20
2018-08-23T02:48:00.884Z,45.20
2018-08-23T02:49:04.242Z,45.30
2018-08-23T02:50:07.299Z,45.30
2018-08-23T02:51:10.798Z,45.30
2018-08-23T02:52:14.741Z,45.30
2018-08-23T02:53:30.770Z,45.30
2018-08-23T02:54:34.352Z,45.30
2018-08-23T02:55:41.829Z,45.20
2018-08-23T02:56:50.441Z,45.30
2018-08-23T02:57:59.828Z,45.40
2018-08-23T02:59:06.183Z,45.30
2018-08-23T03:00:09.390Z,45.30
2018-08-23T03:01:12.453Z,45.40
2018-08-23T03:02:15.510Z,45.40
2018-08-23T03:03:18.758Z,45.40
2018-08-23T03:04:23.954Z,45.40
2018-08-23T03:05:27.104Z,45.40
2018-08-23T03:06:35.308Z,45.40
2018-08-23T03:07:38.329Z,45.30
2018-08-23T03:08:43.736Z,45.30
2018-08-23T03:09:47.559Z,45.30
2018-08-23T03:10:51.237Z,45.30
2018-08-23T03:11:55.601Z,45.40
2018-08-23T03:12:59.400Z,45.40
2018-08-23T03:14:02.949Z,45.40
2018-08-23T03:15:06.524Z,45.30
2018-08-23T03:16:09.703Z,45.30
2018-08-23T03:17:15.364Z,45.30
2018-08-23T03:18:18.396Z,45.30
2018-08-23T03:19:21.695Z,45.40
2018-08-23T03:20:24.708Z,45.50
2018-08-23T03:21:28.392Z,45.40
2018-08-23T03:22:32.590Z,45.40
2018-08-23T03:23:35.659Z,45.40
2018-08-23T03:24:38.799Z,45.40
2018-08-23T03:25:42.289Z,45.30
2018-08-23T03:26:46.525Z,45.40
2018-08-23T03:27:49.916Z,45.30
2018-08-23T03:28:53.016Z,45.90
2018-08-23T03:29:56.154Z,45.30
2018-08-23T03:31:01.396Z,45.30
2018-08-23T03:32:04.916Z,45.30
2018-08-23T03:33:08.013Z,45.20
2018-08-23T03:34:11.263Z,45.20
2018-08-23T03:35:14.592Z,45.10
2018-08-23T03:36:17.673Z,45.10
2018-08-23T03:37:21.225Z,45.00
2018-08-23T03:38:24.336Z,45.00
2018-08-23T03:39:27.600Z,45.00
2018-08-23T03:40:30.635Z,44.90
2018-08-23T03:41:33.772Z,45.00
2018-08-23T03:42:36.781Z,45.00
2018-08-23T03:43:39.843Z,45.00
2018-08-23T03:44:42.860Z,45.00
2018-08-23T03:45:45.876Z,45.00
2018-08-23T03:46:52.563Z,45.00
2018-08-23T03:47:56.049Z,45.10
2018-08-23T03:49:03.527Z,45.10
2018-08-23T03:50:07.804Z,45.10
2018-08-23T03:51:10.860Z,45.00
2018-08-23T03:52:16.375Z,45.00
2018-08-23T03:53:19.491Z,45.00
2018-08-23T03:54:22.504Z,45.60
2018-08-23T03:55:26.688Z,44.90
2018-08-23T03:56:29.692Z,44.90
2018-08-23T03:57:38.123Z,44.90
2018-08-23T03:58:41.704Z,45.00
2018-08-23T03:59:50.065Z,44.90
2018-08-23T04:01:05.980Z,44.90
2018-08-23T04:02:09.000Z,45.00
2018-08-23T04:03:14.803Z,45.00
2018-08-23T04:04:18.039Z,45.00
2018-08-23T04:05:21.031Z,45.00
2018-08-23T04:06:31.396Z,44.90
2018-08-23T04:07:34.897Z,44.90
2018-08-23T04:08:38.567Z,44.90
2018-08-23T04:09:42.053Z,44.90
2018-08-23T04:10:45.077Z,44.90
2018-08-23T04:11:48.052Z,44.80
2018-08-23T04:12:51.074Z,44.90
2018-08-23T04:13:54.091Z,45.50
2018-08-23T04:15:11.541Z,44.80
2018-08-23T04:16:15.025Z,44.90
2018-08-23T04:17:18.054Z,44.90
2018-08-23T04:18:21.051Z,44.90
2018-08-23T04:19:25.955Z,44.90
2018-08-23T04:20:28.984Z,44.80
2018-08-23T04:21:32.024Z,44.90
2018-08-23T04:22:35.084Z,44.80
2018-08-23T04:23:38.388Z,44.90
2018-08-23T04:24:46.944Z,44.90
2018-08-23T04:25:50.101Z,44.90
2018-08-23T04:26:53.091Z,44.90
2018-08-23T04:27:56.091Z,44.90
2018-08-23T04:28:59.172Z,44.90
2018-08-23T04:30:02.197Z,44.80
2018-08-23T04:31:05.256Z,44.90
2018-08-23T04:32:08.252Z,44.80
2018-08-23T04:33:11.464Z,44.80
2018-08-23T04:34:14.480Z,44.90
2018-08-23T04:35:27.216Z,44.80
2018-08-23T04:36:31.616Z,44.90
2018-08-23T04:37:34.669Z,44.90
2018-08-23T04:38:45.574Z,44.80
2018-08-23T04:39:54.016Z,45.00
2018-08-23T04:41:01.657Z,45.00
2018-08-23T04:42:04.837Z,45.00
2018-08-23T04:43:07.934Z,45.00
2018-08-23T04:44:12.960Z,45.00
2018-08-23T04:45:19.013Z,45.00
2018-08-23T04:46:22.659Z,45.00
2018-08-23T04:47:25.892Z,45.00
2018-08-23T04:48:29.552Z,45.00
2018-08-23T04:49:32.609Z,45.00
2018-08-23T04:50:36.108Z,45.00
2018-08-23T04:51:39.180Z,45.00
2018-08-23T04:52:42.359Z,45.00
2018-08-23T04:53:45.377Z,45.00
2018-08-23T04:54:48.636Z,45.00
2018-08-23T04:55:51.677Z,45.00
2018-08-23T04:56:54.708Z,44.90
2018-08-23T04:57:58.688Z,45.00
2018-08-23T04:59:02.599Z,45.10
2018-08-23T05:00:05.915Z,45.10
2018-08-23T05:01:08.947Z,45.00
2018-08-23T05:02:11.964Z,45.00
2018-08-23T05:03:15.061Z,45.00
2018-08-23T05:04:18.088Z,45.10
2018-08-23T05:05:21.122Z,45.00
2018-08-23T05:06:24.900Z,45.00
2018-08-23T05:07:28.357Z,45.00
2018-08-23T05:08:31.711Z,45.00
2018-08-23T05:09:34.837Z,45.60
2018-08-23T05:10:37.841Z,45.00
2018-08-23T05:11:41.223Z,45.00
2018-08-23T05:12:45.903Z,45.10
2018-08-23T05:13:48.951Z,45.00
2018-08-23T05:14:51.983Z,45.00
2018-08-23T05:15:55.050Z,45.00
2018-08-23T05:16:58.260Z,45.10
2018-08-23T05:18:01.390Z,45.10
2018-08-23T05:19:04.826Z,45.00
2018-08-23T05:20:08.127Z,45.10
2018-08-23T05:21:11.164Z,45.00
2018-08-23T05:22:14.241Z,45.00
2018-08-23T05:23:18.644Z,45.00
2018-08-23T05:24:23.364Z,45.10
2018-08-23T05:25:26.888Z,45.10
2018-08-23T05:26:30.560Z,45.10
2018-08-23T05:27:43.652Z,45.10
2018-08-23T05:28:59.399Z,45.10
2018-08-23T05:30:02.788Z,45.10
2018-08-23T05:31:06.178Z,45.10
2018-08-23T05:32:09.280Z,45.20
2018-08-23T05:33:13.672Z,45.20
2018-08-23T05:34:16.950Z,45.20
2018-08-23T05:35:19.999Z,45.30
2018-08-23T05:36:23.024Z,45.30
2018-08-23T05:37:26.183Z,45.20
2018-08-23T05:38:29.243Z,45.20
2018-08-23T05:40:04.208Z,45.10
2018-08-23T05:41:12.564Z,45.20
2018-08-23T05:42:17.241Z,45.70
2018-08-23T05:43:22.299Z,46.50
2018-08-23T05:44:25.802Z,46.50
2018-08-23T05:45:35.161Z,46.70
2018-08-23T05:46:39.202Z,47.00
2018-08-23T05:47:42.345Z,47.00
2018-08-23T05:48:45.311Z,47.50
2018-08-23T05:49:48.335Z,47.60
2018-08-23T05:50:51.997Z,48.00
2018-08-23T05:51:58.204Z,48.00
2018-08-23T05:53:01.261Z,48.30
2018-08-23T05:54:05.028Z,48.50
2018-08-23T05:55:08.768Z,48.80
2018-08-23T05:56:12.509Z,49.00
2018-08-23T05:57:16.400Z,49.00
2018-08-23T05:58:23.155Z,49.20
2018-08-23T05:59:26.180Z,49.20
2018-08-23T06:00:29.975Z,48.50
2018-08-23T06:01:32.979Z,47.80
2018-08-23T06:02:36.706Z,47.50
2018-08-23T06:03:39.715Z,47.20
2018-08-23T06:04:43.997Z,47.10
2018-08-23T06:05:48.281Z,46.90
2018-08-23T06:06:51.405Z,46.80
2018-08-23T06:07:54.636Z,47.10
2018-08-23T06:09:02.669Z,47.00
2018-08-23T06:10:05.690Z,47.00
2018-08-23T06:11:09.851Z,46.90
2018-08-23T06:12:13.226Z,46.90
2018-08-23T06:13:16.703Z,46.80
2018-08-23T06:14:19.802Z,46.70
2018-08-23T06:15:22.825Z,46.70
2018-08-23T06:16:25.872Z,46.60
2018-08-23T06:17:28.895Z,46.60
2018-08-23T06:18:31.904Z,46.60
2018-08-23T06:19:35.083Z,46.60
2018-08-23T06:20:38.103Z,46.70
2018-08-23T06:21:41.136Z,46.80
2018-08-23T06:22:44.131Z,47.00
2018-08-23T06:23:54.923Z,47.10
2018-08-23T06:24:57.980Z,47.20
2018-08-23T06:26:01.004Z,47.30
2018-08-23T06:27:04.035Z,47.30
2018-08-23T06:28:17.237Z,47.40
2018-08-23T06:29:23.845Z,47.50
2018-08-23T06:30:26.864Z,47.60
2018-08-23T06:31:30.560Z,47.70
2018-08-23T06:32:33.601Z,48.10
2018-08-23T06:33:42.206Z,48.20
2018-08-23T06:34:51.385Z,48.30
2018-08-23T06:35:55.141Z,48.40
2018-08-23T06:36:58.172Z,48.50
2018-08-23T06:38:01.192Z,48.50
2018-08-23T06:39:05.932Z,48.60
2018-08-23T06:40:08.933Z,48.40
2018-08-23T06:41:11.979Z,48.40
2018-08-23T06:42:14.979Z,48.50
2018-08-23T06:43:17.993Z,48.60
2018-08-23T06:44:21.557Z,48.60
2018-08-23T06:45:25.401Z,48.70
2018-08-23T06:46:29.348Z,48.60
2018-08-23T06:47:32.373Z,48.50
2018-08-23T06:48:35.388Z,48.50
2018-08-23T06:49:38.484Z,48.40
2018-08-23T06:50:45.802Z,48.40
2018-08-23T06:51:59.073Z,48.50
2018-08-23T06:53:02.152Z,48.50
2018-08-23T06:54:05.200Z,48.60
2018-08-23T06:55:13.217Z,48.60
2018-08-23T06:56:17.927Z,48.50
2018-08-23T06:57:20.916Z,48.50
2018-08-23T06:58:23.944Z,48.50
2018-08-23T06:59:27.777Z,48.90
2018-08-23T07:00:33.628Z,48.50
2018-08-23T07:01:48.000Z,48.70
2018-08-23T07:02:54.662Z,48.80
2018-08-23T07:04:01.956Z,49.00
2018-08-23T07:05:13.752Z,49.20
2018-08-23T07:06:16.775Z,49.20
2018-08-23T07:07:20.068Z,49.00
2018-08-23T07:08:23.085Z,49.00
2018-08-23T07:09:26.109Z,49.00
2018-08-23T07:10:29.132Z,49.00
2018-08-23T07:11:32.173Z,49.10
2018-08-23T07:12:35.901Z,49.10
2018-08-23T07:13:38.975Z,49.20
2018-08-23T07:14:41.967Z,49.10
2018-08-23T07:15:49.333Z,49.00
2018-08-23T07:16:52.352Z,49.10
2018-08-23T07:17:55.351Z,49.10
2018-08-23T07:18:58.359Z,49.00
2018-08-23T07:20:04.371Z,49.00
2018-08-23T07:21:07.396Z,49.10
2018-08-23T07:22:10.481Z,49.40
2018-08-23T07:23:25.258Z,49.40
2018-08-23T07:24:40.044Z,49.70
2018-08-23T07:25:45.058Z,49.90
2018-08-23T07:26:48.232Z,49.90
2018-08-23T07:27:51.248Z,50.00
2018-08-23T07:28:54.297Z,50.10
2018-08-23T07:29:58.417Z,49.80
2018-08-23T07:31:01.336Z,49.70
2018-08-23T07:32:06.289Z,50.00
2018-08-23T07:33:09.319Z,50.00
2018-08-23T07:34:12.309Z,49.90
2018-08-23T07:35:17.732Z,49.90
2018-08-23T07:36:27.720Z,50.00
2018-08-23T07:37:31.950Z,50.00
2018-08-23T07:38:34.972Z,50.00
2018-08-23T07:39:38.056Z,49.80
2018-08-23T07:40:41.135Z,49.70
2018-08-23T07:41:44.111Z,50.30
2018-08-23T07:42:48.462Z,49.60
2018-08-23T07:43:51.571Z,49.60
2018-08-23T07:44:54.960Z,49.50
2018-08-23T07:45:57.971Z,49.20
2018-08-23T07:47:01.251Z,49.10
2018-08-23T07:48:04.380Z,49.00
2018-08-23T07:49:07.400Z,48.90
2018-08-23T07:50:10.577Z,48.70
2018-08-23T07:51:19.162Z,48.50
2018-08-23T07:52:22.155Z,48.50
2018-08-23T07:53:25.215Z,48.70
2018-08-23T07:54:28.296Z,49.10
2018-08-23T07:55:31.332Z,49.00
2018-08-23T07:56:34.373Z,48.70
2018-08-23T07:57:37.938Z,48.50
2018-08-23T07:58:40.955Z,48.50
2018-08-23T07:59:43.988Z,48.70
2018-08-23T08:00:47.060Z,48.40
2018-08-23T08:01:50.058Z,48.30
2018-08-23T08:02:53.348Z,48.10
2018-08-23T08:03:57.102Z,47.80
2018-08-23T08:05:00.140Z,47.50
2018-08-23T08:06:03.168Z,47.80
2018-08-23T08:07:08.100Z,47.70
2018-08-23T08:08:12.106Z,47.70
2018-08-23T08:09:23.651Z,47.50
2018-08-23T08:10:31.515Z,47.50
2018-08-23T08:11:45.829Z,47.90
2018-08-23T08:12:50.942Z,47.70
2018-08-23T08:13:59.340Z,47.70
2018-08-23T08:15:02.753Z,47.70
2018-08-23T08:16:14.670Z,47.60
2018-08-23T08:17:23.357Z,47.50
2018-08-23T08:18:26.531Z,47.40
2018-08-23T08:19:36.353Z,47.30
2018-08-23T08:20:44.926Z,47.30
2018-08-23T08:21:48.169Z,47.30
2018-08-23T08:22:51.419Z,47.30
2018-08-23T08:23:58.652Z,47.20
2018-08-23T08:25:04.761Z,47.10
2018-08-23T08:26:07.777Z,47.00
2018-08-23T08:27:11.013Z,47.00
2018-08-23T08:28:14.344Z,47.10
2018-08-23T08:29:23.484Z,47.00
2018-08-23T08:30:39.235Z,47.00
2018-08-23T08:31:42.656Z,47.00
2018-08-23T08:32:45.776Z,46.90
2018-08-23T08:33:48.792Z,46.90
2018-08-23T08:34:51.764Z,46.80
2018-08-23T08:35:59.548Z,46.80
2018-08-23T08:37:02.544Z,46.90
2018-08-23T08:38:05.577Z,46.90
2018-08-23T08:39:09.363Z,46.80
2018-08-23T08:40:13.945Z,46.90
2018-08-23T08:41:16.948Z,46.90
2018-08-23T08:42:27.331Z,46.90
2018-08-23T08:43:30.383Z,46.80
2018-08-23T08:44:33.412Z,46.70
2018-08-23T08:45:36.431Z,46.60
2018-08-23T08:46:39.457Z,46.50
2018-08-23T08:47:43.777Z,46.50
2018-08-23T08:48:47.181Z,46.40
2018-08-23T08:49:50.245Z,46.40
2018-08-23T08:51:10.120Z,46.40
2018-08-23T08:52:13.190Z,45.60
2018-08-23T08:53:16.209Z,46.30
2018-08-23T08:54:19.260Z,46.30
2018-08-23T08:55:22.268Z,46.20
2018-08-23T08:56:28.529Z,46.20
2018-08-23T08:57:31.988Z,46.10
2018-08-23T08:58:34.996Z,46.10
2018-08-23T08:59:37.999Z,46.10
2018-08-23T09:00:49.644Z,46.00
2018-08-23T09:01:53.127Z,46.00
2018-08-23T09:02:56.148Z,46.10
2018-08-23T09:03:59.172Z,46.10
2018-08-23T09:05:02.161Z,46.00
2018-08-23T09:06:07.157Z,46.00
2018-08-23T09:07:10.146Z,46.00
2018-08-23T09:08:13.127Z,46.00
2018-08-23T09:09:23.616Z,45.90
2018-08-23T09:10:26.641Z,46.00
2018-08-23T09:11:29.647Z,45.80
2018-08-23T09:12:33.303Z,45.90
2018-08-23T09:13:41.702Z,45.90
2018-08-23T09:14:44.721Z,45.90
2018-08-23T09:15:48.380Z,45.70
2018-08-23T09:16:51.442Z,45.70
2018-08-23T09:17:54.485Z,45.60
2018-08-23T09:18:59.840Z,45.60
2018-08-23T09:20:04.752Z,45.60
2018-08-23T09:21:07.756Z,45.60
2018-08-23T09:22:16.116Z,45.60
2018-08-23T09:23:19.203Z,45.60
2018-08-23T09:24:26.013Z,45.60
2018-08-23T09:25:34.316Z,45.50
2018-08-23T09:26:38.861Z,45.50
2018-08-23T09:27:41.859Z,45.50
2018-08-23T09:28:44.842Z,45.40
2018-08-23T09:29:47.930Z,45.50
2018-08-23T09:30:50.909Z,45.40
2018-08-23T09:31:53.968Z,45.40
2018-08-23T09:32:57.465Z,45.40
2018-08-23T09:34:00.509Z,45.40
2018-08-23T09:35:04.406Z,45.30
2018-08-23T09:36:07.391Z,45.30
2018-08-23T09:37:10.718Z,45.20
2018-08-23T09:38:14.837Z,45.20
2018-08-23T09:39:17.835Z,45.10
2018-08-23T09:40:22.104Z,45.20
2018-08-23T09:41:25.235Z,45.10
2018-08-23T09:42:34.016Z,45.10
2018-08-23T09:43:37.044Z,45.10
2018-08-23T09:44:53.015Z,45.10
2018-08-23T09:45:56.109Z,45.10
2018-08-23T09:47:05.283Z,45.00
2018-08-23T09:48:08.743Z,45.00
2018-08-23T09:49:11.923Z,44.90
2018-08-23T09:50:14.940Z,44.80
2018-08-23T09:51:30.412Z,44.80
2018-08-23T09:52:42.444Z,44.80
2018-08-23T09:53:45.750Z,44.70
2018-08-23T09:54:48.822Z,44.60
2018-08-23T09:55:52.673Z,44.60
2018-08-23T09:56:55.836Z,44.50
2018-08-23T09:57:59.353Z,44.70
2018-08-23T09:59:02.350Z,44.70
2018-08-23T10:00:06.810Z,44.60
2018-08-23T10:01:15.309Z,44.50
2018-08-23T10:02:23.808Z,44.50
2018-08-23T10:03:33.140Z,44.60
2018-08-23T10:04:41.639Z,44.30
2018-08-23T10:05:50.084Z,43.90
2018-08-23T10:07:01.086Z,43.80
2018-08-23T10:08:09.615Z,43.90
2018-08-23T10:09:18.120Z,44.70
2018-08-23T10:10:26.506Z,45.10
2018-08-23T10:11:35.121Z,44.70
2018-08-23T10:12:43.459Z,44.70
2018-08-23T10:13:51.856Z,44.70
2018-08-23T10:15:00.407Z,44.90
2018-08-23T10:16:08.951Z,44.50
2018-08-23T10:17:17.534Z,43.90
2018-08-23T10:18:26.285Z,43.60
2018-08-23T10:19:34.844Z,43.70
2018-08-23T10:20:43.614Z,43.90
2018-08-23T10:21:52.157Z,44.20
2018-08-23T10:23:00.517Z,44.40
2018-08-23T10:24:14.642Z,44.50
2018-08-23T10:25:32.405Z,44.30
2018-08-23T10:26:35.593Z,44.20
2018-08-23T10:27:38.606Z,44.60
2018-08-23T10:28:46.975Z,45.20
2018-08-23T10:29:50.007Z,44.50
2018-08-23T10:30:53.305Z,44.90
2018-08-23T10:31:56.413Z,45.40
2018-08-23T10:32:59.440Z,44.50
2018-08-23T10:34:02.460Z,43.70
2018-08-23T10:35:05.497Z,44.70
2018-08-23T10:36:08.512Z,43.90
2018-08-23T10:37:11.551Z,43.60
2018-08-23T10:38:16.095Z,44.80
2018-08-23T10:39:19.179Z,45.50
2018-08-23T10:40:22.214Z,45.00
2018-08-23T10:41:25.268Z,44.80
2018-08-23T10:42:28.256Z,44.10
2018-08-23T10:43:36.691Z,43.90
2018-08-23T10:44:39.795Z,43.70
2018-08-23T10:45:43.031Z,43.60
2018-08-23T10:46:51.429Z,43.40
2018-08-23T10:47:59.912Z,43.50
2018-08-23T10:49:02.952Z,43.60
2018-08-23T10:50:05.928Z,44.00
2018-08-23T10:51:09.007Z,44.10
2018-08-23T10:52:12.012Z,44.10
2018-08-23T10:53:15.363Z,44.00
2018-08-23T10:54:18.394Z,43.90
2018-08-23T10:55:21.400Z,43.90
2018-08-23T10:56:26.684Z,43.80
2018-08-23T10:57:29.720Z,43.70
2018-08-23T10:58:32.782Z,43.70
2018-08-23T10:59:35.828Z,43.70
2018-08-23T11:00:38.864Z,43.60
2018-08-23T11:01:41.866Z,43.60
2018-08-23T11:02:44.949Z,43.60
2018-08-23T11:03:48.019Z,43.70
2018-08-23T11:04:51.069Z,43.60
2018-08-23T11:05:54.069Z,43.50
2018-08-23T11:06:58.892Z,43.70
2018-08-23T11:08:07.292Z,43.60
2018-08-23T11:09:15.694Z,43.80
2018-08-23T11:10:24.180Z,44.00
2018-08-23T11:11:32.502Z,44.00
2018-08-23T11:12:40.775Z,44.00
2018-08-23T11:13:45.913Z,44.90
2018-08-23T11:14:48.891Z,45.40
2018-08-23T11:15:56.197Z,45.40
2018-08-23T11:17:04.871Z,45.30
2018-08-23T11:18:13.202Z,44.90
2018-08-23T11:19:21.728Z,44.20
2018-08-23T11:20:25.914Z,43.50
2018-08-23T11:21:28.936Z,43.60
2018-08-23T11:22:37.727Z,44.10
2018-08-23T11:23:41.560Z,43.70
2018-08-23T11:24:44.548Z,44.10
2018-08-23T11:25:47.627Z,43.60
2018-08-23T11:26:50.703Z,43.00
2018-08-23T11:27:54.268Z,42.50
2018-08-23T11:28:57.359Z,42.10
2018-08-23T11:30:00.433Z,41.80
2018-08-23T11:31:03.422Z,41.80
2018-08-23T11:32:06.460Z,42.40
2018-08-23T11:33:09.985Z,42.20
2018-08-23T11:34:12.968Z,42.10
2018-08-23T11:35:16.022Z,41.90
2018-08-23T11:36:19.165Z,41.80
2018-08-23T11:37:22.275Z,41.10
2018-08-23T11:38:25.329Z,40.90
2018-08-23T11:39:28.336Z,40.60
2018-08-23T11:40:31.499Z,40.50
2018-08-23T11:41:34.567Z,40.80
2018-08-23T11:42:37.656Z,41.10
2018-08-23T11:43:40.723Z,42.00
2018-08-23T11:44:43.769Z,41.80
2018-08-23T11:45:46.828Z,42.00
2018-08-23T11:46:49.860Z,42.30
2018-08-23T11:47:52.924Z,42.50
2018-08-23T11:48:55.986Z,43.20
2018-08-23T11:49:58.999Z,43.30
2018-08-23T11:51:02.091Z,43.20
2018-08-23T11:52:05.116Z,42.70
2018-08-23T11:53:08.189Z,42.70
2018-08-23T11:54:11.152Z,43.00
2018-08-23T11:55:14.104Z,43.00
2018-08-23T11:56:17.115Z,43.40
2018-08-23T11:57:20.155Z,42.90
2018-08-23T11:58:23.362Z,42.80
2018-08-23T11:59:26.559Z,43.10
2018-08-23T12:00:29.734Z,44.00
2018-08-23T12:01:32.899Z,44.00
2018-08-23T12:02:36.096Z,43.30
2018-08-23T12:03:39.640Z,43.50
2018-08-23T12:04:42.735Z,43.40
2018-08-23T12:05:45.788Z,43.00
2018-08-23T12:06:52.228Z,43.10
2018-08-23T12:07:55.706Z,43.60
2018-08-23T12:08:58.738Z,43.90
2018-08-23T12:10:01.919Z,42.90
2018-08-23T12:11:04.963Z,43.50
2018-08-23T12:12:08.132Z,44.00
2018-08-23T12:13:13.876Z,44.10
2018-08-23T12:14:17.928Z,43.80
2018-08-23T12:15:27.276Z,44.40
2018-08-23T12:16:31.385Z,44.50
2018-08-23T12:17:35.860Z,43.30
2018-08-23T12:18:49.039Z,44.40
2018-08-23T12:19:53.691Z,44.30
2018-08-23T12:20:57.832Z,44.60
2018-08-23T12:22:01.436Z,44.70
2018-08-23T12:23:04.518Z,44.40
2018-08-23T12:24:07.565Z,43.70
2018-08-23T12:25:12.480Z,43.80
2018-08-23T12:26:15.647Z,43.60
2018-08-23T12:27:18.664Z,43.90
2018-08-23T12:28:27.113Z,42.70
2018-08-23T12:29:30.194Z,43.30
2018-08-23T12:30:33.213Z,43.80
2018-08-23T12:31:36.557Z,44.10
2018-08-23T12:32:39.532Z,44.10
2018-08-23T12:33:42.539Z,44.30
2018-08-23T12:34:45.665Z,44.00
2018-08-23T12:35:48.834Z,43.50
2018-08-23T12:36:57.132Z,43.50
2018-08-23T12:38:05.677Z,43.40
2018-08-23T12:39:14.884Z,43.40
2018-08-23T12:40:23.492Z,43.60
2018-08-23T12:41:32.028Z,43.30
2018-08-23T12:42:40.677Z,43.20
2018-08-23T12:43:46.847Z,43.40
2018-08-23T12:44:52.741Z,43.70
2018-08-23T12:45:59.792Z,43.90
2018-08-23T12:47:03.861Z,43.60
2018-08-23T12:48:07.248Z,43.00
2018-08-23T12:49:10.786Z,43.20
2018-08-23T12:50:13.853Z,43.50
2018-08-23T12:51:16.871Z,43.70
2018-08-23T12:52:19.977Z,43.70
2018-08-23T12:53:23.188Z,43.90
2018-08-23T12:54:26.164Z,43.40
2018-08-23T12:55:29.196Z,42.50
2018-08-23T12:56:32.244Z,42.50
2018-08-23T12:57:35.247Z,42.30
2018-08-23T12:58:38.408Z,42.10
2018-08-23T12:59:41.450Z,42.40
2018-08-23T13:00:45.507Z,42.50
2018-08-23T13:01:48.640Z,42.60
2018-08-23T13:02:51.694Z,42.80
2018-08-23T13:03:54.862Z,42.90
2018-08-23T13:04:57.875Z,43.00
2018-08-23T13:06:00.920Z,43.10
2018-08-23T13:07:03.988Z,43.40
2018-08-23T13:08:07.981Z,43.40
2018-08-23T13:09:11.159Z,42.90
2018-08-23T13:10:14.187Z,42.50
2018-08-23T13:11:17.254Z,42.80
2018-08-23T13:12:20.315Z,42.10
2018-08-23T13:13:23.367Z,42.40
2018-08-23T13:14:26.452Z,42.60
2018-08-23T13:15:29.532Z,43.10
2018-08-23T13:16:32.583Z,43.00
2018-08-23T13:17:35.762Z,43.10
2018-08-23T13:18:39.284Z,43.00
2018-08-23T13:19:42.452Z,42.80
2018-08-23T13:20:45.432Z,42.40
2018-08-23T13:21:52.748Z,42.30
2018-08-23T13:22:55.795Z,42.70
2018-08-23T13:24:00.083Z,42.70
2018-08-23T13:25:05.603Z,42.80
2018-08-23T13:26:08.700Z,42.70
2018-08-23T13:27:11.752Z,41.90
2018-08-23T13:28:14.808Z,41.50
2018-08-23T13:29:17.987Z,41.10
2018-08-23T13:30:21.041Z,41.00
2018-08-23T13:31:24.032Z,40.60
2018-08-23T13:32:27.184Z,40.60
2018-08-23T13:33:30.168Z,41.00
2018-08-23T13:34:33.232Z,41.00
2018-08-23T13:35:36.346Z,41.30
2018-08-23T13:36:39.399Z,41.80
2018-08-23T13:37:42.394Z,42.10
2018-08-23T13:38:45.478Z,42.10
2018-08-23T13:39:48.564Z,41.60
2018-08-23T13:40:51.587Z,41.70
2018-08-23T13:41:54.568Z,42.60
2018-08-23T13:42:57.677Z,42.60
2018-08-23T13:44:00.763Z,42.40
2018-08-23T13:45:03.893Z,42.30
2018-08-23T13:46:06.912Z,42.20
2018-08-23T13:47:09.924Z,41.90
2018-08-23T13:48:13.107Z,41.70
2018-08-23T13:49:16.124Z,40.80
2018-08-23T13:50:19.327Z,40.50
2018-08-23T13:51:22.877Z,40.80
2018-08-23T13:52:26.026Z,40.80
2018-08-23T13:53:29.087Z,40.60